Time;durP1;ratioP1;P1;durP2;ratioP2;P2;SDS_P1;SDS_P2;PMS_P1;PMS_P2;Temp;Humidity;BMP_temperature;BMP_pressure;BME280_temperature;BME280_humidity;BME280_pressure;Samples;Min_cycle;Max_cycle;Signal;HPM_P1;HPM_P2
2023/12/27 00:02:24;;;;;;;27.42;11.75;;;;;;;9.38;71.91;102176.50;5010058;28;20137;-48
2023/12/27 00:04:50;;;;;;;31.38;11.48;;;;;;;9.36;72.66;102171.22;5009964;28;20225;-44
2023/12/27 00:07:15;;;;;;;25.50;12.05;;;;;;;9.47;72.51;102167.31;5010387;28;20389;-49
2023/12/27 00:09:40;;;;;;;29.27;12.70;;;;;;;9.46;72.61;102173.34;5009661;28;20037;-48
2023/12/27 00:12:06;;;;;;;24.60;13.02;;;;;;;9.41;73.02;102168.78;5009942;28;20041;-44
2023/12/27 00:14:31;;;;;;;31.80;13.50;;;;;;;9.33;73.53;102166.78;5011237;28;20092;-45
2023/12/27 00:16:56;;;;;;;30.33;12.85;;;;;;;9.40;73.42;102167.00;5010417;28;20108;-50
2023/12/27 00:19:22;;;;;;;33.22;13.38;;;;;;;9.39;72.98;102168.75;5010645;28;20092;-46
2023/12/27 00:21:47;;;;;;;35.20;14.50;;;;;;;9.34;72.84;102157.25;5009718;28;20126;-47
2023/12/27 00:24:12;;;;;;;37.10;14.18;;;;;;;9.45;73.60;102161.19;5008542;28;20492;-48
2023/12/27 00:26:38;;;;;;;35.50;14.80;;;;;;;9.47;73.77;102163.81;5009892;28;20042;-48
2023/12/27 00:29:03;;;;;;;32.10;14.10;;;;;;;9.50;73.83;102157.03;5008134;28;20105;-48
2023/12/27 00:31:28;;;;;;;31.35;14.18;;;;;;;9.57;73.25;102145.13;5010318;28;20050;-44
2023/12/27 00:33:54;;;;;;;31.83;13.32;;;;;;;9.57;73.15;102148.63;5009576;28;20045;-45
2023/12/27 00:36:28;;;;;;;32.40;13.95;;;;;;;9.63;73.16;102154.06;5010042;28;20041;-44
2023/12/27 00:38:54;;;;;;;27.85;13.25;;;;;;;9.55;72.95;102149.38;5010188;28;20038;-45
2023/12/27 00:41:19;;;;;;;31.05;12.43;;;;;;;9.53;73.06;102151.03;5011199;28;20044;-44
2023/12/27 00:43:44;;;;;;;25.15;11.73;;;;;;;9.51;73.43;102153.59;5010186;28;20026;-47
2023/12/27 00:46:10;;;;;;;25.83;11.40;;;;;;;9.55;72.92;102157.19;5011188;28;20041;-50
2023/12/27 00:48:35;;;;;;;22.77;10.75;;;;;;;9.65;72.93;102160.19;5012009;28;20034;-46
2023/12/27 00:51:02;;;;;;;26.73;11.15;;;;;;;9.71;73.11;102150.00;5014829;28;20046;-45
2023/12/27 00:53:27;;;;;;;25.67;11.10;;;;;;;9.73;73.00;102150.97;5012328;28;20044;-46
2023/12/27 00:55:53;;;;;;;25.83;10.23;;;;;;;9.82;73.00;102150.41;5013378;28;22011;-45
2023/12/27 00:58:18;;;;;;;24.90;10.50;;;;;;;9.82;73.22;102147.78;5013419;28;20046;-45
2023/12/27 01:00:43;;;;;;;27.55;10.07;;;;;;;9.85;73.71;102141.81;5011722;28;20113;-45
2023/12/27 01:03:08;;;;;;;26.55;10.80;;;;;;;9.89;73.60;102144.59;5012690;28;20045;-50
2023/12/27 01:05:34;;;;;;;25.60;10.68;;;;;;;9.82;73.34;102142.59;5012880;28;20093;-44
2023/12/27 01:07:59;;;;;;;26.20;10.75;;;;;;;9.82;73.44;102133.91;5013141;28;20382;-44
2023/12/27 01:10:24;;;;;;;25.17;10.52;;;;;;;9.74;73.23;102139.72;5013193;28;20046;-44
2023/12/27 01:12:50;;;;;;;28.20;10.45;;;;;;;9.62;73.58;102136.66;5012479;28;20030;-47
2023/12/27 01:15:15;;;;;;;28.90;10.23;;;;;;;9.50;73.87;102131.00;5014306;28;20044;-47
2023/12/27 01:17:40;;;;;;;22.98;9.90;;;;;;;9.60;73.27;102133.09;5011881;28;20041;-45
2023/12/27 01:20:06;;;;;;;24.15;10.20;;;;;;;9.58;73.22;102142.56;5013320;28;20048;-45
2023/12/27 01:22:32;;;;;;;22.17;10.07;;;;;;;9.52;72.94;102139.72;5012750;28;20069;-47
2023/12/27 01:24:57;;;;;;;24.67;10.32;;;;;;;9.48;72.97;102144.78;5012282;28;20030;-45
2023/12/27 01:27:22;;;;;;;20.95;9.75;;;;;;;9.42;72.92;102149.75;5012722;28;20042;-44
2023/12/27 01:29:48;;;;;;;25.85;10.00;;;;;;;9.37;73.03;102149.56;5012573;28;20382;-47
2023/12/27 01:32:13;;;;;;;25.35;10.68;;;;;;;9.36;73.53;102146.09;5012644;28;20042;-45
2023/12/27 01:34:38;;;;;;;24.10;11.27;;;;;;;9.27;74.13;102147.47;5012226;28;20042;-47
2023/12/27 01:37:04;;;;;;;27.42;12.25;;;;;;;9.35;74.57;102151.22;5012717;28;20129;-46
2023/12/27 01:39:29;;;;;;;27.27;11.88;;;;;;;9.58;73.93;102139.97;5013162;28;20071;-44
2023/12/27 01:41:54;;;;;;;28.08;12.23;;;;;;;9.62;73.79;102144.47;5012220;28;20099;-50
2023/12/27 01:44:20;;;;;;;25.95;12.10;;;;;;;9.68;73.58;102142.09;5011331;28;20432;-46
2023/12/27 01:46:45;;;;;;;27.58;11.80;;;;;;;9.66;73.39;102141.16;5011871;28;20045;-46
2023/12/27 01:49:11;;;;;;;29.77;11.90;;;;;;;9.64;73.29;102142.78;5012522;28;20057;-50
2023/12/27 01:51:37;;;;;;;33.17;12.10;;;;;;;9.71;74.01;102133.50;5011932;28;20034;-44
2023/12/27 01:54:02;;;;;;;28.83;12.68;;;;;;;9.73;73.94;102131.84;5012257;28;20038;-46
2023/12/27 01:56:28;;;;;;;30.88;12.30;;;;;;;9.56;74.70;102125.13;5012957;28;20400;-44
2023/12/27 01:58:54;;;;;;;28.08;12.18;;;;;;;9.75;74.38;102120.66;5012332;28;20041;-45
2023/12/27 02:01:20;;;;;;;30.20;12.00;;;;;;;9.74;74.26;102124.09;5012949;28;20044;-45
2023/12/27 02:03:45;;;;;;;26.17;11.63;;;;;;;9.85;73.99;102116.66;5012702;28;20049;-49
2023/12/27 02:06:11;;;;;;;28.85;11.50;;;;;;;9.80;74.14;102119.94;5013572;28;20034;-43
2023/12/27 02:08:37;;;;;;;28.45;12.15;;;;;;;9.83;74.21;102126.13;5012796;28;20452;-46
2023/12/27 02:11:03;;;;;;;29.75;12.43;;;;;;;9.89;73.86;102126.34;5014090;28;20042;-47
2023/12/27 02:13:28;;;;;;;26.42;11.57;;;;;;;9.88;73.63;102139.34;5013399;28;20041;-46
2023/12/27 02:15:54;;;;;;;27.52;11.20;;;;;;;9.88;73.53;102140.19;5012904;28;20042;-49
2023/12/27 02:18:21;;;;;;;25.20;11.73;;;;;;;9.80;74.07;102144.25;5015273;28;20034;-46
2023/12/27 02:20:47;;;;;;;28.95;12.77;;;;;;;9.88;74.08;102140.19;5015105;28;20048;-50
2023/12/27 02:23:17;;;;;;;26.67;13.15;;;;;;;9.85;74.37;102134.91;5014750;28;20084;-48
2023/12/27 02:25:43;;;;;;;31.00;13.77;;;;;;;9.88;74.10;102128.91;5011859;28;20038;-46
2023/12/27 02:28:08;;;;;;;29.52;13.35;;;;;;;9.86;74.89;102122.75;5012180;28;20092;-49
2023/12/27 02:30:36;;;;;;;31.25;13.38;;;;;;;10.10;73.37;102113.22;5014756;28;20046;-49
2023/12/27 02:33:01;;;;;;;30.73;13.23;;;;;;;9.96;73.80;102122.25;5013510;28;20404;-47
2023/12/27 02:35:27;;;;;;;28.95;12.68;;;;;;;10.01;73.79;102113.75;5019331;28;20034;-49
2023/12/27 02:37:52;;;;;;;29.67;12.85;;;;;;;10.00;73.88;102109.38;5016219;28;20036;-45
2023/12/27 02:40:17;;;;;;;26.23;13.18;;;;;;;9.98;73.92;102102.34;5011759;28;20034;-46
2023/12/27 02:42:43;;;;;;;27.15;12.68;;;;;;;9.91;74.52;102102.97;5010919;28;20034;-48
2023/12/27 02:45:08;;;;;;;27.70;12.65;;;;;;;9.93;74.65;102098.72;5010075;28;20030;-45
2023/12/27 02:47:34;;;;;;;28.40;12.40;;;;;;;10.01;73.72;102090.31;5011436;28;20092;-46
2023/12/27 02:49:59;;;;;;;28.98;13.05;;;;;;;10.04;73.53;102084.34;5011332;28;20038;-48
2023/12/27 02:52:25;;;;;;;32.83;13.40;;;;;;;9.86;74.06;102081.09;5011141;28;20184;-44
2023/12/27 02:54:50;;;;;;;30.15;13.00;;;;;;;9.94;73.75;102074.44;5010620;28;20141;-46
2023/12/27 02:57:16;;;;;;;27.65;13.65;;;;;;;10.10;73.30;102069.81;5011310;28;20050;-46
2023/12/27 02:59:41;;;;;;;25.65;12.05;;;;;;;10.08;73.38;102065.34;5011028;28;20505;-44
2023/12/27 03:02:06;;;;;;;26.45;12.48;;;;;;;10.02;72.94;102070.34;5011357;28;20635;-47
2023/12/27 03:04:32;;;;;;;28.35;13.02;;;;;;;10.14;72.90;102056.03;5011035;28;20072;-52
2023/12/27 03:06:57;;;;;;;31.02;12.75;;;;;;;10.22;72.42;102055.44;5010988;28;20585;-45
2023/12/27 03:09:24;;;;;;;30.33;12.75;;;;;;;10.14;72.90;102045.59;5011366;28;20042;-49
2023/12/27 03:11:50;;;;;;;27.48;12.75;;;;;;;10.16;72.84;102048.28;5009885;28;20038;-47
2023/12/27 03:14:15;;;;;;;29.25;13.10;;;;;;;9.69;74.48;102039.72;5011167;28;20037;-47
2023/12/27 03:16:40;;;;;;;31.02;13.80;;;;;;;9.94;73.98;102025.81;5010735;28;20037;-48
2023/12/27 03:19:06;;;;;;;27.70;13.32;;;;;;;9.96;73.88;102026.75;5011050;28;20405;-45
2023/12/27 03:21:31;;;;;;;30.08;12.70;;;;;;;9.74;73.93;102025.13;5011127;28;20500;-46
2023/12/27 03:23:56;;;;;;;31.15;13.23;;;;;;;10.08;73.10;102023.66;5010030;28;20050;-45
2023/12/27 03:26:21;;;;;;;28.02;12.80;;;;;;;10.26;72.76;102021.72;5010882;28;20117;-45
2023/12/27 03:28:47;;;;;;;26.73;13.13;;;;;;;10.19;73.02;102019.72;5010205;28;20125;-46
2023/12/27 03:31:13;;;;;;;25.15;12.95;;;;;;;10.20;72.99;102012.81;5010882;28;20187;-45
2023/12/27 03:33:38;;;;;;;38.45;14.70;;;;;;;10.29;72.64;102005.28;5010156;28;20385;-46
2023/12/27 03:36:04;;;;;;;31.00;13.82;;;;;;;10.29;72.84;101995.75;5011084;28;20120;-46
2023/12/27 03:38:29;;;;;;;33.05;14.60;;;;;;;9.67;74.36;101991.00;5010987;28;20134;-48
2023/12/27 03:40:55;;;;;;;32.15;15.32;;;;;;;9.71;74.64;101991.16;5010917;28;20494;-44
2023/12/27 03:43:20;;;;;;;39.80;14.70;;;;;;;9.98;74.21;101996.44;5011010;28;20108;-46
2023/12/27 03:45:46;;;;;;;31.77;14.77;;;;;;;10.16;73.04;101989.25;5009552;28;20084;-47
2023/12/27 03:48:11;;;;;;;30.08;15.10;;;;;;;9.67;74.25;101993.63;5009929;28;20033;-48
2023/12/27 03:50:37;;;;;;;29.90;15.10;;;;;;;10.23;73.23;101981.66;5009698;28;20030;-44
2023/12/27 03:53:02;;;;;;;32.00;15.07;;;;;;;10.24;73.40;101968.66;5010749;28;20068;-44
2023/12/27 03:55:28;;;;;;;29.27;14.20;;;;;;;10.32;72.80;101964.56;5011318;28;20378;-48
2023/12/27 03:57:53;;;;;;;31.45;15.13;;;;;;;10.07;72.91;101968.06;5010628;28;20126;-45
2023/12/27 04:00:19;;;;;;;30.08;15.73;;;;;;;9.94;73.03;101955.47;5011976;28;20443;-45
2023/12/27 04:02:45;;;;;;;31.15;15.15;;;;;;;9.92;73.83;101958.88;5009541;28;20069;-44
2023/12/27 04:05:12;;;;;;;33.25;15.65;;;;;;;10.02;73.74;101948.81;5012091;28;20476;-46
2023/12/27 04:07:37;;;;;;;36.35;14.45;;;;;;;10.06;72.53;101942.84;5010215;28;20064;-44
2023/12/27 04:10:03;;;;;;;30.73;14.30;;;;;;;10.33;72.30;101944.59;5010070;28;20038;-45
2023/12/27 04:12:28;;;;;;;28.50;13.70;;;;;;;10.31;72.21;101944.53;5009439;28;20042;-49
2023/12/27 04:14:54;;;;;;;29.58;14.18;;;;;;;10.38;72.42;101935.19;5009453;28;20042;-43
2023/12/27 04:17:19;;;;;;;31.65;13.30;;;;;;;10.28;72.55;101927.94;5010165;28;20120;-46
2023/12/27 04:19:44;;;;;;;26.27;12.70;;;;;;;9.88;72.93;101916.19;5009729;28;20041;-46
2023/12/27 04:22:09;;;;;;;27.20;12.80;;;;;;;9.84;74.13;101913.44;5010885;28;20041;-44
2023/12/27 04:24:35;;;;;;;27.80;12.38;;;;;;;10.03;73.29;101916.72;5011869;28;20041;-50
2023/12/27 04:27:01;;;;;;;30.48;12.38;;;;;;;10.17;72.79;101906.75;5013812;28;20061;-47
2023/12/27 04:29:26;;;;;;;29.08;11.63;;;;;;;10.15;73.09;101914.50;5013951;28;20092;-45
2023/12/27 04:31:51;;;;;;;24.35;11.95;;;;;;;10.37;72.20;101910.00;5013075;28;20580;-48
2023/12/27 04:34:17;;;;;;;22.33;11.50;;;;;;;10.06;73.31;101910.72;5013578;28;20444;-45
2023/12/27 04:36:42;;;;;;;25.50;12.18;;;;;;;10.04;73.72;101908.06;5011874;28;20041;-45
2023/12/27 04:39:07;;;;;;;30.10;11.55;;;;;;;9.81;74.20;101909.03;5013895;28;20042;-45
2023/12/27 04:41:33;;;;;;;19.67;10.38;;;;;;;10.13;73.23;101908.34;5014049;28;20116;-47
2023/12/27 04:43:58;;;;;;;27.85;11.02;;;;;;;10.21;73.39;101899.91;5011707;28;20061;-51
2023/12/27 04:46:23;;;;;;;20.90;10.23;;;;;;;10.25;72.85;101900.03;5013685;28;20141;-48
2023/12/27 04:48:49;;;;;;;28.48;10.75;;;;;;;10.25;73.34;101900.03;5013624;28;20053;-44
2023/12/27 04:51:14;;;;;;;28.13;10.65;;;;;;;9.85;74.48;101897.00;5013264;28;20038;-50
2023/12/27 04:53:39;;;;;;;26.40;9.98;;;;;;;9.94;73.64;101892.94;5012069;28;20093;-45
2023/12/27 04:56:05;;;;;;;28.95;10.43;;;;;;;10.04;74.26;101879.41;5013571;28;20099;-45
2023/12/27 04:58:35;;;;;;;19.10;10.05;;;;;;;9.68;74.94;101880.81;5013650;28;20044;-48
2023/12/27 05:01:02;;;;;;;25.98;9.82;;;;;;;10.10;73.76;101881.31;5013130;28;20041;-49
2023/12/27 05:03:27;;;;;;;24.23;8.77;;;;;;;9.95;74.28;101859.97;5013106;28;20038;-47
2023/12/27 05:05:53;;;;;;;22.23;9.85;;;;;;;9.76;75.39;101866.31;5012911;28;20040;-49
2023/12/27 05:08:18;;;;;;;24.23;9.80;;;;;;;10.07;73.75;101857.75;5013062;28;20058;-47
2023/12/27 05:10:43;;;;;;;23.13;9.30;;;;;;;9.88;74.07;101853.69;5012988;28;20096;-45
2023/12/27 05:13:08;;;;;;;23.50;9.23;;;;;;;10.09;74.05;101848.28;5012736;28;20038;-48
2023/12/27 05:15:34;;;;;;;26.50;8.95;;;;;;;10.35;72.53;101847.38;5011633;28;20153;-46
2023/12/27 05:17:59;;;;;;;22.70;9.30;;;;;;;10.38;73.19;101838.75;5013462;28;20041;-49
2023/12/27 05:20:24;;;;;;;22.80;8.82;;;;;;;10.39;73.18;101837.91;5013408;28;20048;-48
2023/12/27 05:22:50;;;;;;;22.23;8.88;;;;;;;10.23;73.12;101827.88;5011353;28;20045;-48
2023/12/27 05:25:15;;;;;;;26.95;8.95;;;;;;;10.29;73.52;101833.28;5012933;28;20073;-45
2023/12/27 05:27:40;;;;;;;26.15;9.32;;;;;;;10.42;72.54;101840.63;5012251;28;20420;-48
2023/12/27 05:30:09;;;;;;;20.77;9.50;;;;;;;10.21;73.27;101827.84;5010438;28;20041;-48
2023/12/27 05:32:34;;;;;;;25.85;9.77;;;;;;;10.63;72.14;101833.41;5012519;28;20042;-45
2023/12/27 05:34:59;;;;;;;20.05;9.15;;;;;;;10.32;73.29;101833.34;5011978;28;20034;-47
2023/12/27 05:37:25;;;;;;;25.02;9.05;;;;;;;9.90;75.37;101835.50;5012773;28;20516;-47
2023/12/27 05:39:50;;;;;;;26.15;9.95;;;;;;;9.77;75.12;101835.13;5012131;28;20074;-49
2023/12/27 05:42:15;;;;;;;24.23;9.57;;;;;;;10.37;73.68;101829.19;5012558;28;20112;-46
2023/12/27 05:44:41;;;;;;;23.98;9.93;;;;;;;10.03;75.09;101833.34;5011489;28;20041;-46
2023/12/27 05:47:07;;;;;;;26.90;9.70;;;;;;;10.03;75.11;101829.84;5012642;28;20041;-47
2023/12/27 05:49:33;;;;;;;24.40;9.82;;;;;;;10.05;75.40;101821.25;5012557;28;20060;-44
2023/12/27 05:51:59;;;;;;;29.27;10.00;;;;;;;9.84;75.90;101823.19;5011855;28;20619;-47
2023/12/27 05:54:26;;;;;;;23.45;10.10;;;;;;;9.88;75.84;101819.81;5012319;28;20038;-45
2023/12/27 05:56:51;;;;;;;26.15;9.77;;;;;;;10.14;75.34;101811.09;5011912;28;20041;-46
2023/12/27 05:59:17;;;;;;;23.88;9.75;;;;;;;10.19;75.07;101813.88;5012387;28;20057;-50
2023/12/27 06:01:47;;;;;;;24.23;9.60;;;;;;;9.81;76.77;101807.47;5012398;28;20022;-44
2023/12/27 06:04:14;;;;;;;24.23;10.05;;;;;;;9.93;76.28;101805.25;5011397;28;20078;-44
2023/12/27 06:06:40;;;;;;;23.42;9.48;;;;;;;10.00;76.23;101807.19;5012115;28;20060;-47
2023/12/27 06:09:05;;;;;;;24.42;9.32;;;;;;;9.69;77.30;101801.88;5010762;28;20090;-47
2023/12/27 06:11:31;;;;;;;24.92;10.45;;;;;;;9.87;77.49;101793.75;5012017;28;20504;-47
2023/12/27 06:13:56;;;;;;;26.00;9.80;;;;;;;9.66;77.06;101774.00;5011523;28;20049;-48
2023/12/27 06:16:21;;;;;;;24.52;10.20;;;;;;;9.53;78.20;101774.47;5012130;28;20064;-49
2023/12/27 06:18:47;;;;;;;23.33;9.57;;;;;;;9.51;78.95;101772.66;5012041;28;20088;-45
2023/12/27 06:21:12;;;;;;;24.77;9.88;;;;;;;9.94;78.24;101759.25;5012072;28;20066;-47
2023/12/27 06:23:37;;;;;;;26.50;10.23;;;;;;;9.97;77.50;101747.19;5011139;28;20452;-45
2023/12/27 06:26:03;;;;;;;26.65;10.18;;;;;;;9.84;78.28;101742.44;5012201;28;20087;-45
2023/12/27 06:28:28;;;;;;;22.80;9.55;;;;;;;9.69;79.20;101744.59;5009685;28;20112;-48
2023/12/27 06:30:53;;;;;;;24.70;9.75;;;;;;;10.21;77.82;101739.22;5009882;28;20053;-45
2023/12/27 06:33:19;;;;;;;27.52;10.18;;;;;;;9.85;78.90;101730.31;5011688;28;20044;-44
2023/12/27 06:35:44;;;;;;;26.55;10.00;;;;;;;10.07;78.06;101724.88;5011175;28;20037;-46
2023/12/27 06:38:09;;;;;;;22.92;9.45;;;;;;;10.47;76.27;101721.72;5011760;28;20034;-46
2023/12/27 06:40:35;;;;;;;19.88;9.43;;;;;;;9.93;77.84;101724.50;5011929;28;20127;-47
2023/12/27 06:43:00;;;;;;;24.30;9.50;;;;;;;9.97;78.74;101715.94;5011255;28;20124;-45
2023/12/27 06:45:25;;;;;;;24.38;9.73;;;;;;;9.88;79.10;101710.44;5011177;28;20058;-48
2023/12/27 06:47:50;;;;;;;25.02;10.13;;;;;;;9.88;79.41;101707.81;5011194;28;20037;-45
2023/12/27 06:50:16;;;;;;;24.27;9.25;;;;;;;9.89;79.26;101698.28;5012053;28;20412;-45
2023/12/27 06:52:41;;;;;;;25.85;10.30;;;;;;;9.97;78.78;101704.63;5011474;28;20114;-47
2023/12/27 06:55:07;;;;;;;23.25;9.68;;;;;;;10.24;77.94;101704.56;5012642;28;20513;-44
2023/12/27 06:57:32;;;;;;;23.65;9.35;;;;;;;9.65;80.44;101706.25;5011900;28;20044;-45
2023/12/27 06:59:58;;;;;;;25.38;9.77;;;;;;;9.92;79.74;101707.09;5013538;28;20040;-45
2023/12/27 07:02:23;;;;;;;21.70;10.05;;;;;;;10.25;79.35;101699.38;5012314;28;20088;-45
2023/12/27 07:04:48;;;;;;;28.08;10.02;;;;;;;10.03;80.84;101699.59;5010093;28;20037;-45
2023/12/27 07:07:20;;;;;;;25.55;9.77;;;;;;;10.12;79.45;101690.28;5037525;28;20401;-45
2023/12/27 07:09:45;;;;;;;19.02;9.75;;;;;;;9.87;80.69;101692.19;5009692;28;20385;-42
2023/12/27 07:12:12;;;;;;;22.77;10.50;;;;;;;10.40;79.14;101684.16;5010146;28;20038;-45
2023/12/27 07:14:38;;;;;;;26.00;10.38;;;;;;;10.16;79.91;101684.38;5029725;28;20492;-43
2023/12/27 07:17:04;;;;;;;20.02;9.75;;;;;;;10.20;80.06;101687.06;5028943;28;20395;-44
2023/12/27 07:19:29;;;;;;;22.20;10.05;;;;;;;10.44;79.15;101674.69;5025770;28;20064;-46
2023/12/27 07:21:55;;;;;;;20.10;10.10;;;;;;;10.24;79.58;101678.50;5026736;28;20057;-44
2023/12/27 07:24:22;;;;;;;20.50;10.40;;;;;;;10.27;79.49;101671.66;5026884;28;20041;-44
2023/12/27 07:26:47;;;;;;;23.00;10.07;;;;;;;10.25;79.79;101670.72;5026425;28;20064;-44
2023/12/27 07:29:13;;;;;;;22.05;10.35;;;;;;;10.50;79.31;101665.31;5025744;28;20038;-49
2023/12/27 07:31:38;;;;;;;22.48;10.25;;;;;;;10.63;78.71;101666.50;5026506;28;20495;-46
2023/12/27 07:34:04;;;;;;;18.40;10.27;;;;;;;10.38;79.65;101662.38;5026282;28;20113;-44
2023/12/27 07:36:29;;;;;;;19.75;10.82;;;;;;;10.54;79.47;101650.66;5026820;28;20057;-47
2023/12/27 07:38:54;;;;;;;19.23;10.57;;;;;;;10.60;79.12;101655.13;5026166;28;20072;-45
2023/12/27 07:41:20;;;;;;;19.48;10.65;;;;;;;10.16;80.25;101658.34;5026973;28;20084;-46
2023/12/27 07:43:46;;;;;;;18.00;10.27;;;;;;;10.07;81.74;101659.75;5024648;28;20092;-45
2023/12/27 07:46:11;;;;;;;17.42;10.95;;;;;;;10.27;80.91;101662.94;5026279;28;20037;-50
2023/12/27 07:48:37;;;;;;;20.48;11.25;;;;;;;10.40;80.64;101652.91;5026259;28;20644;-45
2023/12/27 07:51:03;;;;;;;17.88;10.25;;;;;;;10.41;79.73;101649.44;5026486;28;20112;-46
2023/12/27 07:53:29;;;;;;;18.08;10.48;;;;;;;10.49;80.22;101649.66;5026000;28;20029;-42
2023/12/27 07:55:54;;;;;;;15.82;10.68;;;;;;;10.51;80.31;101643.63;5025666;28;20072;-44
2023/12/27 07:58:20;;;;;;;18.88;11.23;;;;;;;10.58;80.70;101640.34;5026466;28;20038;-45
2023/12/27 08:00:45;;;;;;;20.52;11.52;;;;;;;10.92;78.77;101644.63;5026009;28;20042;-44
2023/12/27 08:03:10;;;;;;;19.85;11.13;;;;;;;10.69;79.28;101630.16;5024680;28;20121;-44
2023/12/27 08:05:36;;;;;;;21.35;11.80;;;;;;;10.44;80.94;101625.16;5025379;28;20511;-44
2023/12/27 08:08:04;;;;;;;19.73;12.07;;;;;;;10.96;79.15;101632.56;5026526;28;20124;-44
2023/12/27 08:10:31;;;;;;;20.75;11.43;;;;;;;10.93;79.30;101624.66;5026270;28;20407;-43
2023/12/27 08:12:56;;;;;;;21.15;11.88;;;;;;;10.68;79.71;101620.56;5025264;28;20026;-43
2023/12/27 08:15:22;;;;;;;23.67;12.30;;;;;;;10.36;81.08;101603.25;5025826;28;20101;-43
2023/12/27 08:17:47;;;;;;;19.30;11.80;;;;;;;10.32;81.15;101596.19;5017702;28;20048;-46
2023/12/27 08:20:13;;;;;;;18.20;11.65;;;;;;;10.45;81.54;101596.53;5013123;28;20077;-49
2023/12/27 08:22:38;;;;;;;19.17;11.80;;;;;;;10.53;81.98;101588.91;5012227;28;20550;-45
2023/12/27 08:25:05;;;;;;;18.13;11.27;;;;;;;10.64;81.39;101595.28;5012940;28;20044;-44
2023/12/27 08:27:31;;;;;;;18.10;11.45;;;;;;;10.77;81.39;101586.91;5013012;28;20041;-45
2023/12/27 08:29:56;;;;;;;19.88;11.68;;;;;;;10.80;81.71;101580.88;5012850;28;20032;-44
2023/12/27 08:32:21;;;;;;;19.67;11.70;;;;;;;11.06;80.66;101577.13;5012699;28;20038;-44
2023/12/27 08:34:49;;;;;;;18.63;11.23;;;;;;;10.81;81.74;101569.59;5012773;28;20041;-47
2023/12/27 08:37:15;;;;;;;22.02;12.23;;;;;;;11.02;81.46;101577.91;5013549;28;20038;-45
2023/12/27 08:39:40;;;;;;;22.20;12.43;;;;;;;10.99;81.01;101583.94;5013241;28;20045;-45
2023/12/27 08:42:06;;;;;;;22.33;12.52;;;;;;;11.25;80.75;101573.22;5012669;28;20041;-45
2023/12/27 08:44:31;;;;;;;21.45;12.55;;;;;;;11.21;80.25;101567.06;5012302;28;20030;-43
2023/12/27 08:46:56;;;;;;;22.10;12.73;;;;;;;10.84;82.75;101554.03;5011458;28;20030;-45
2023/12/27 08:49:22;;;;;;;19.35;12.18;;;;;;;11.11;81.63;101545.91;5012356;28;20033;-49
2023/12/27 08:51:47;;;;;;;20.88;11.27;;;;;;;11.66;78.94;101558.38;5012117;28;20113;-47
2023/12/27 08:54:12;;;;;;;19.88;11.77;;;;;;;11.69;79.42;101555.84;5011693;28;20045;-48
2023/12/27 08:56:37;;;;;;;19.63;12.65;;;;;;;11.60;80.22;101559.16;5011858;28;20034;-45
2023/12/27 08:59:03;;;;;;;19.13;12.32;;;;;;;11.83;79.42;101546.59;5012595;28;20512;-46
2023/12/27 09:01:28;;;;;;;19.38;11.60;;;;;;;11.80;80.20;101533.47;5012446;28;20034;-47
2023/12/27 09:03:54;;;;;;;20.88;12.55;;;;;;;11.64;80.70;101541.81;5011954;28;20042;-45
2023/12/27 09:06:19;;;;;;;22.02;12.68;;;;;;;11.60;81.21;101542.59;5011689;28;20037;-45
2023/12/27 09:08:44;;;;;;;19.98;12.05;;;;;;;11.75;80.89;101533.38;5011585;28;20627;-44
2023/12/27 09:11:10;;;;;;;20.73;12.30;;;;;;;12.08;79.90;101540.06;5012320;28;20120;-43
2023/12/27 09:13:35;;;;;;;20.75;12.25;;;;;;;12.13;79.58;101538.44;5011432;28;20125;-44
2023/12/27 09:16:03;;;;;;;20.33;12.60;;;;;;;12.08;79.74;101535.72;5012175;28;20524;-43
2023/12/27 09:18:28;;;;;;;21.95;12.52;;;;;;;12.33;79.55;101537.00;5012105;28;20469;-43
2023/12/27 09:20:54;;;;;;;21.80;13.05;;;;;;;12.41;78.77;101538.03;5011752;28;20121;-45
2023/12/27 09:23:19;;;;;;;21.92;12.93;;;;;;;12.23;78.93;101534.22;5012292;28;20034;-44
2023/12/27 09:25:45;;;;;;;24.00;13.02;;;;;;;12.36;78.99;101528.34;5011278;28;20030;-45
2023/12/27 09:28:10;;;;;;;22.70;13.82;;;;;;;11.90;81.49;101508.38;5011665;28;20045;-48
2023/12/27 09:30:35;;;;;;;24.73;14.05;;;;;;;12.19;80.92;101508.06;5010970;28;20381;-47
2023/12/27 09:33:01;;;;;;;25.35;14.23;;;;;;;12.32;80.67;101501.25;5011295;28;20064;-44
2023/12/27 09:35:26;;;;;;;24.83;14.60;;;;;;;12.52;79.71;101499.84;5011689;28;20069;-43
2023/12/27 09:37:52;;;;;;;24.85;13.93;;;;;;;12.53;79.68;101498.13;5011394;28;20038;-48
2023/12/27 09:40:17;;;;;;;28.58;14.35;;;;;;;12.63;79.36;101494.78;5011861;28;20053;-44
2023/12/27 09:42:44;;;;;;;23.85;14.25;;;;;;;12.58;79.63;101488.59;5011397;28;20491;-45
2023/12/27 09:45:15;;;;;;;24.42;13.88;;;;;;;12.75;79.24;101487.09;5012402;28;20040;-46
2023/12/27 09:47:43;;;;;;;26.08;14.38;;;;;;;12.89;78.83;101488.19;5012138;28;20046;-43
2023/12/27 09:50:09;;;;;;;24.45;14.10;;;;;;;13.00;78.95;101493.56;5012628;28;20033;-49
2023/12/27 09:52:38;;;;;;;23.30;14.20;;;;;;;13.00;78.41;101486.59;5011302;28;20033;-51
2023/12/27 09:55:04;;;;;;;24.50;13.82;;;;;;;12.95;78.55;101492.63;5012185;28;20064;-44
2023/12/27 09:57:29;;;;;;;25.77;13.52;;;;;;;13.15;78.22;101495.53;5011564;28;20061;-47
2023/12/27 09:59:56;;;;;;;23.30;12.63;;;;;;;13.20;78.00;101496.47;5010771;28;20608;-51
2023/12/27 10:02:23;;;;;;;26.00;13.38;;;;;;;13.14;78.34;101496.38;5010911;28;20033;-44
2023/12/27 10:04:54;;;;;;;24.15;13.13;;;;;;;13.04;78.42;101486.63;5010451;28;20045;-44
2023/12/27 10:07:23;;;;;;;22.90;12.52;;;;;;;12.89;79.21;101485.56;5010905;28;20416;-46
2023/12/27 10:09:49;;;;;;;29.15;14.00;;;;;;;12.86;80.32;101474.19;5009337;28;20037;-45
2023/12/27 10:12:15;;;;;;;22.50;12.57;;;;;;;13.14;79.45;101478.94;5010483;28;20069;-44
2023/12/27 10:14:42;;;;;;;22.52;12.18;;;;;;;13.12;79.54;101475.41;4992237;28;20041;-46
2023/12/27 10:17:07;;;;;;;24.27;12.20;;;;;;;13.08;79.84;101473.59;5010964;28;20060;-45
2023/12/27 10:19:38;;;;;;;19.67;11.68;;;;;;;13.18;79.55;101451.94;5010803;28;20125;-45
2023/12/27 10:22:03;;;;;;;21.35;12.43;;;;;;;13.20;79.34;101442.38;5002878;28;20038;-43
2023/12/27 10:24:29;;;;;;;20.17;12.32;;;;;;;13.28;79.19;101439.84;5010188;28;20037;-47
2023/12/27 10:26:57;;;;;;;19.25;11.63;;;;;;;13.32;79.42;101439.88;5009844;28;20046;-47
2023/12/27 10:29:23;;;;;;;20.10;11.38;;;;;;;13.42;78.78;101443.47;5010378;28;20086;-44
2023/12/27 10:31:49;;;;;;;20.23;12.20;;;;;;;13.06;80.52;101412.50;5009858;28;20500;-45
2023/12/27 10:34:14;;;;;;;20.75;12.25;;;;;;;13.39;79.76;101428.63;5009815;28;20552;-44
2023/12/27 10:36:42;;;;;;;23.25;12.05;;;;;;;13.02;80.34;101458.69;5010011;28;20042;-44
2023/12/27 10:39:09;;;;;;;24.30;11.98;;;;;;;13.19;79.89;101448.47;5010445;28;20404;-44
2023/12/27 10:41:34;;;;;;;19.70;11.15;;;;;;;13.05;80.65;101465.72;5010085;28;20030;-51
2023/12/27 10:44:04;;;;;;;21.85;12.20;;;;;;;13.37;79.73;101453.03;5010752;28;20049;-47
2023/12/27 10:46:31;;;;;;;24.08;11.65;;;;;;;13.25;80.11;101443.28;5010623;28;20249;-46
2023/12/27 10:49:02;;;;;;;20.08;11.23;;;;;;;13.40;79.21;101442.59;5010557;28;20515;-46
2023/12/27 10:51:29;;;;;;;17.77;11.02;;;;;;;13.40;79.55;101445.22;5010942;28;20053;-49
2023/12/27 10:53:58;;;;;;;21.75;11.45;;;;;;;13.41;79.36;101439.13;5009408;28;20041;-47
2023/12/27 10:56:24;;;;;;;21.63;11.20;;;;;;;13.62;78.61;101415.75;5010199;28;20413;-46
2023/12/27 10:58:52;;;;;;;20.50;11.07;;;;;;;13.30;79.04;101409.28;5009404;28;20048;-45
2023/12/27 11:01:21;;;;;;;19.85;10.63;;;;;;;13.45;79.24;101412.09;5010152;28;20034;-46
2023/12/27 11:03:48;;;;;;;19.40;10.88;;;;;;;13.68;78.78;101412.31;5009375;28;20045;-46
2023/12/27 11:06:20;;;;;;;19.00;10.57;;;;;;;13.34;78.50;101408.50;5009472;28;20038;-45
2023/12/27 11:08:48;;;;;;;16.55;9.77;;;;;;;13.62;78.25;101389.53;5008439;28;20038;-44